createdAt,value
2023-01-02T08:54:27.199Z,9.89
2023-01-02T08:56:53.791Z,9.85
2023-01-02T08:59:23.598Z,9.89
2023-01-02T09:01:50.464Z,9.92
2023-01-02T09:04:17.930Z,10.04
2023-01-02T09:06:44.794Z,10.11
2023-01-02T09:09:13.215Z,10.07
2023-01-02T09:11:49.039Z,10.18
2023-01-02T09:14:16.051Z,10.61
2023-01-02T09:16:42.619Z,11.14
2023-01-02T09:19:12.500Z,11.96
2023-01-02T09:21:39.199Z,12.81
2023-01-02T09:24:06.791Z,13.68
2023-01-02T09:26:33.373Z,14.21
2023-01-02T09:28:59.941Z,15.17
2023-01-02T09:31:26.619Z,15.96
2023-01-02T09:33:54.795Z,16.15
2023-01-02T09:36:22.518Z,16.38
2023-01-02T09:38:56.067Z,16.50
2023-01-02T09:41:33.290Z,16.12
2023-01-02T09:44:22.531Z,16.07
2023-01-02T09:47:04.500Z,16.66
2023-01-02T09:49:34.417Z,16.91
2023-01-02T09:52:01.096Z,16.92
2023-01-02T09:54:32.652Z,15.82
2023-01-02T09:57:15.773Z,14.34
2023-01-02T09:59:48.323Z,14.10
2023-01-02T10:02:42.903Z,13.85
2023-01-02T10:05:31.804Z,13.06
2023-01-02T10:08:26.408Z,13.00
2023-01-02T10:11:10.076Z,12.92
2023-01-02T10:16:40.696Z,12.55
2023-01-02T10:19:15.002Z,12.34
2023-01-02T10:21:42.767Z,12.33
2023-01-02T10:24:16.660Z,12.27
2023-01-02T10:26:47.861Z,12.29
2023-01-02T10:29:30.744Z,12.27
2023-01-02T10:32:15.304Z,12.23
2023-01-02T10:35:10.353Z,12.07
2023-01-02T10:37:37.053Z,12.04
2023-01-02T10:40:04.638Z,11.91
2023-01-02T10:42:32.967Z,11.83
2023-01-02T10:44:59.628Z,11.88
2023-01-02T10:47:35.423Z,11.84
2023-01-02T10:50:05.078Z,11.88
2023-01-02T10:52:45.959Z,11.84
2023-01-02T10:55:13.081Z,11.93
2023-01-02T10:57:44.862Z,11.89
2023-01-02T11:00:31.910Z,11.88
2023-01-02T11:03:01.516Z,11.89
2023-01-02T11:05:30.164Z,11.81
2023-01-02T11:07:56.665Z,11.79
2023-01-02T11:10:30.625Z,11.93
2023-01-02T11:13:02.577Z,11.84
2023-01-02T11:15:34.532Z,11.95
2023-01-02T11:18:02.751Z,12.00
2023-01-02T11:20:34.719Z,12.04
2023-01-02T11:23:03.151Z,12.10
2023-01-02T11:25:36.845Z,12.12
2023-01-02T11:28:03.796Z,12.05
2023-01-02T11:31:01.559Z,12.18
2023-01-02T11:33:30.642Z,12.24
2023-01-02T11:36:14.438Z,12.21
2023-01-02T11:38:50.687Z,12.16
2023-01-02T11:41:53.378Z,12.21
2023-01-02T11:44:33.285Z,12.34
2023-01-02T11:47:00.911Z,12.26
2023-01-02T11:49:33.210Z,12.31
2023-01-02T11:52:02.834Z,12.33
2023-01-02T11:54:40.164Z,12.21
2023-01-02T11:57:18.439Z,12.20
2023-01-02T11:59:47.945Z,12.25
2023-01-02T12:02:51.842Z,12.30
2023-01-02T12:05:26.158Z,12.24
2023-01-02T12:08:01.372Z,12.27
2023-01-02T12:10:52.415Z,12.33
2023-01-02T12:13:42.708Z,12.20
2023-01-02T12:16:44.908Z,12.05
2023-01-02T12:19:37.071Z,12.15
2023-01-02T12:22:03.757Z,12.30
2023-01-02T12:24:45.716Z,12.40
2023-01-02T12:27:22.723Z,12.41
2023-01-02T12:30:20.576Z,12.40
2023-01-02T12:33:02.009Z,12.55
2023-01-02T12:36:02.591Z,12.42
2023-01-02T12:38:34.956Z,12.46
2023-01-02T12:41:27.822Z,12.51
2023-01-02T12:44:08.683Z,12.61
2023-01-02T12:46:47.502Z,12.70
2023-01-02T12:49:22.261Z,12.75
2023-01-02T12:51:58.504Z,12.73
2023-01-02T12:54:33.316Z,12.65
2023-01-02T12:57:09.493Z,12.68
2023-01-02T12:59:45.089Z,12.76
2023-01-02T13:02:11.841Z,12.84
2023-01-02T13:04:42.722Z,12.86
2023-01-02T13:07:15.091Z,12.83
2023-01-02T13:09:44.305Z,12.97
2023-01-02T13:12:10.899Z,13.08
2023-01-02T13:14:59.206Z,13.06
2023-01-02T13:17:49.774Z,13.23
2023-01-02T13:20:28.163Z,13.16
2023-01-02T13:23:37.205Z,13.20
2023-01-02T13:26:07.896Z,13.24
2023-01-02T13:29:06.928Z,13.14
2023-01-02T13:31:46.650Z,13.12
2023-01-02T13:34:31.482Z,13.24
2023-01-02T13:37:05.804Z,13.20
2023-01-02T13:39:40.981Z,13.16
2023-01-02T13:42:29.473Z,13.17
2023-01-02T13:44:58.273Z,13.21
2023-01-02T13:47:34.967Z,13.23
2023-01-02T13:50:09.070Z,13.19
2023-01-02T13:52:35.944Z,13.04
2023-01-02T13:55:28.497Z,13.14
2023-01-02T13:58:14.035Z,13.10
2023-01-02T14:00:53.516Z,13.06
2023-01-02T14:03:21.984Z,13.16
2023-01-02T14:05:58.687Z,13.13
2023-01-02T14:08:32.433Z,13.02
2023-01-02T14:11:10.493Z,13.00
2023-01-02T14:13:52.224Z,12.95
2023-01-02T14:16:43.269Z,12.97
2023-01-02T14:19:13.081Z,12.84
2023-01-02T14:21:44.202Z,12.77
2023-01-02T14:24:16.767Z,12.71
2023-01-02T14:26:52.608Z,12.77
2023-01-02T14:29:21.098Z,12.76
2023-01-02T14:31:47.835Z,12.82
2023-01-02T14:34:23.658Z,12.76
2023-01-02T14:36:50.754Z,12.79
2023-01-02T14:39:26.266Z,12.68
2023-01-02T14:42:11.573Z,12.62
2023-01-02T14:44:45.134Z,12.63
2023-01-02T14:47:17.073Z,12.61
2023-01-02T14:49:44.292Z,12.59
2023-01-02T14:52:16.023Z,12.41
2023-01-02T14:54:48.999Z,12.49
2023-01-02T14:57:29.793Z,12.52
2023-01-02T14:59:57.085Z,12.49
2023-01-02T15:02:31.073Z,12.41
2023-01-02T15:05:06.362Z,12.39
2023-01-02T15:07:36.996Z,12.39
2023-01-02T15:10:08.218Z,12.32
2023-01-02T15:13:02.016Z,12.37
2023-01-02T15:15:29.767Z,12.28
2023-01-02T15:18:01.678Z,12.33
2023-01-02T15:20:28.731Z,12.27
2023-01-02T15:22:56.430Z,12.19
2023-01-02T15:25:37.876Z,12.15
2023-01-02T15:28:05.742Z,12.13
2023-01-02T15:30:38.387Z,12.15
2023-01-02T15:33:06.247Z,12.13
2023-01-02T15:35:35.959Z,12.11
2023-01-02T15:38:05.223Z,12.13
2023-01-02T15:40:33.965Z,11.95
2023-01-02T15:43:22.947Z,11.98
2023-01-02T15:45:51.990Z,11.87
2023-01-02T15:48:21.853Z,11.95
2023-01-02T15:50:50.796Z,11.95
2023-01-02T15:53:23.887Z,11.79
2023-01-02T15:55:50.684Z,11.82
2023-01-02T15:58:17.189Z,11.77
2023-01-02T16:00:44.918Z,11.78
2023-01-02T16:03:16.918Z,11.83
2023-01-02T16:06:06.997Z,11.82
2023-01-02T16:08:37.874Z,11.74
2023-01-02T16:11:05.202Z,11.70
2023-01-02T16:13:52.786Z,11.69
2023-01-02T16:16:20.819Z,11.58
2023-01-02T16:18:51.706Z,11.60
2023-01-02T16:21:18.849Z,11.72
2023-01-02T16:23:50.248Z,11.71
2023-01-02T16:26:19.154Z,11.61
2023-01-02T16:28:45.829Z,11.67
2023-01-02T16:31:21.372Z,11.61
2023-01-02T16:33:48.317Z,11.63
2023-01-02T16:36:14.815Z,11.57
2023-01-02T16:38:50.422Z,11.47
2023-01-02T16:41:38.367Z,11.49
2023-01-02T16:44:12.608Z,11.47
2023-01-02T16:46:39.813Z,11.53
2023-01-02T16:49:07.470Z,11.49
2023-01-02T16:51:34.499Z,11.44
2023-01-02T16:54:01.087Z,11.37
2023-01-02T16:56:27.847Z,11.30
2023-01-02T16:58:54.477Z,11.37
2023-01-02T17:01:22.289Z,11.34
2023-01-02T17:03:48.980Z,11.28
2023-01-02T17:06:20.293Z,11.21
2023-01-02T17:08:48.123Z,11.23
2023-01-02T17:11:16.197Z,11.35
2023-01-02T17:13:42.863Z,11.28
2023-01-02T17:16:09.698Z,11.25
2023-01-02T17:18:36.821Z,11.28
2023-01-02T17:21:03.802Z,11.31
2023-01-02T17:23:30.511Z,11.18
2023-01-02T17:25:57.095Z,11.14
2023-01-02T17:28:24.082Z,11.17
2023-01-02T17:30:51.379Z,11.10
2023-01-02T17:33:18.665Z,11.07
2023-01-02T17:35:46.301Z,11.00
2023-01-02T17:38:13.216Z,10.95
2023-01-02T17:40:39.908Z,10.94
2023-01-02T17:43:06.503Z,10.93
2023-01-02T17:45:33.156Z,10.91
2023-01-02T17:48:05.476Z,10.89
2023-01-02T17:50:34.358Z,10.81
2023-01-02T17:53:00.872Z,10.89
2023-01-02T17:55:27.444Z,10.96
2023-01-02T17:57:54.237Z,11.02
2023-01-02T18:00:23.507Z,10.93
2023-01-02T18:02:52.151Z,10.84
2023-01-02T18:05:19.311Z,10.85
2023-01-02T18:07:46.141Z,10.71
2023-01-02T18:10:17.577Z,10.80
2023-01-02T18:12:46.634Z,10.76
2023-01-02T18:15:15.348Z,10.77
2023-01-02T18:17:42.044Z,10.70
2023-01-02T18:20:13.597Z,10.74
2023-01-02T18:22:47.933Z,10.71
2023-01-02T18:25:29.986Z,10.70
2023-01-02T18:28:00.837Z,10.65
2023-01-02T18:30:27.754Z,10.61
2023-01-02T18:33:12.918Z,10.71
2023-01-02T18:36:09.559Z,10.70
2023-01-02T18:38:37.881Z,10.67
2023-01-02T18:41:25.247Z,10.64
2023-01-02T18:44:04.836Z,10.67
2023-01-02T18:47:03.808Z,10.68
2023-01-02T18:49:28.875Z,10.59
2023-01-02T18:52:10.367Z,10.60
2023-01-02T18:54:41.353Z,10.62
2023-01-02T18:57:16.111Z,10.55
2023-01-02T18:59:44.390Z,10.48
2023-01-02T19:02:40.109Z,10.54
2023-01-02T19:05:31.320Z,10.49
2023-01-02T19:08:13.825Z,10.59
2023-01-02T19:10:43.065Z,10.50
2023-01-02T19:13:20.869Z,10.49
2023-01-02T19:16:00.539Z,10.48
2023-01-02T19:18:43.267Z,10.60
2023-01-02T19:21:10.234Z,10.46
2023-01-02T19:23:56.782Z,10.43
2023-01-02T19:26:39.459Z,10.41
2023-01-02T19:29:11.728Z,10.35
2023-01-02T19:31:50.651Z,10.33
2023-01-02T19:34:23.365Z,10.17
2023-01-02T19:36:53.396Z,10.20
2023-01-02T19:39:37.896Z,10.25
2023-01-02T19:42:20.813Z,10.26
2023-01-02T19:44:57.360Z,10.13
2023-01-02T19:47:27.204Z,10.24
2023-01-02T19:49:54.224Z,10.13
2023-01-02T19:52:22.057Z,10.13
2023-01-02T19:54:49.332Z,10.14
2023-01-02T19:57:20.622Z,10.23
2023-01-02T19:59:49.374Z,10.20
2023-01-02T20:02:20.927Z,10.00
2023-01-02T20:04:49.751Z,9.97
2023-01-02T20:07:16.890Z,9.92
2023-01-02T20:09:43.936Z,9.80
2023-01-02T20:12:29.557Z,9.80
2023-01-02T20:14:57.200Z,9.86
2023-01-02T20:17:24.042Z,9.91
2023-01-02T20:19:53.510Z,9.81
2023-01-02T20:22:21.455Z,9.83
2023-01-02T20:24:48.165Z,9.82
2023-01-02T20:27:15.822Z,9.80
2023-01-02T20:29:42.630Z,9.80
2023-01-02T20:32:09.383Z,9.78
2023-01-02T20:34:35.964Z,9.82
2023-01-02T20:37:02.767Z,9.81
2023-01-02T20:39:29.467Z,9.79
2023-01-02T20:42:13.013Z,9.85
2023-01-02T20:44:40.417Z,9.86
2023-01-02T20:47:07.312Z,9.85
2023-01-02T20:49:34.072Z,9.79
2023-01-02T20:52:00.721Z,9.78
2023-01-02T20:54:27.912Z,9.76
2023-01-02T20:56:54.494Z,9.70
2023-01-02T20:59:21.600Z,9.71
2023-01-02T21:01:48.517Z,9.73
2023-01-02T21:04:20.438Z,9.70
2023-01-02T21:06:51.654Z,9.69
2023-01-02T21:09:18.642Z,9.72
2023-01-02T21:11:45.450Z,9.64
2023-01-02T21:14:12.237Z,9.63
2023-01-02T21:16:39.072Z,9.59
2023-01-02T21:19:05.709Z,9.57
2023-01-02T21:21:32.381Z,9.48
2023-01-02T21:23:58.961Z,9.43
2023-01-02T21:26:25.492Z,9.44
2023-01-02T21:28:52.224Z,9.37
2023-01-02T21:31:20.934Z,9.40
2023-01-02T21:33:48.041Z,9.41
2023-01-02T21:36:15.835Z,9.42
2023-01-02T21:38:43.566Z,9.45
2023-01-02T21:41:29.336Z,9.50
2023-01-02T21:43:56.001Z,9.44
2023-01-02T21:46:22.802Z,9.46
2023-01-02T21:48:49.474Z,9.46
2023-01-02T21:51:16.024Z,9.48
2023-01-02T21:53:42.516Z,9.44
2023-01-02T21:56:09.112Z,9.40
2023-01-02T21:58:36.044Z,9.40
2023-01-02T22:01:02.605Z,9.42
2023-01-02T22:03:29.309Z,9.42
2023-01-02T22:05:56.040Z,9.35
2023-01-02T22:08:22.522Z,9.33
2023-01-02T22:10:49.627Z,9.34
2023-01-02T22:13:16.583Z,9.36
2023-01-02T22:15:45.571Z,9.30
2023-01-02T22:18:12.898Z,9.24
2023-01-02T22:20:39.957Z,9.26
2023-01-02T22:23:06.572Z,9.20
2023-01-02T22:25:33.291Z,9.18
2023-01-02T22:28:00.056Z,9.19
2023-01-02T22:30:33.929Z,9.11
2023-01-02T22:33:01.413Z,9.08
2023-01-02T22:35:27.987Z,9.05
2023-01-02T22:37:54.576Z,8.97
2023-01-02T22:40:21.270Z,8.99
2023-01-02T22:43:03.214Z,8.94
2023-01-02T22:45:51.734Z,8.86
2023-01-02T22:48:27.086Z,8.87
2023-01-02T22:50:55.512Z,8.79
2023-01-02T22:53:30.391Z,8.79
2023-01-02T22:55:57.037Z,8.80
2023-01-02T22:58:24.130Z,8.80
2023-01-02T23:01:01.647Z,8.76
2023-01-02T23:03:30.160Z,8.72
2023-01-02T23:05:57.623Z,8.68
2023-01-02T23:08:24.352Z,8.66
2023-01-02T23:10:50.935Z,8.59
2023-01-02T23:13:17.498Z,8.63
2023-01-02T23:16:02.537Z,8.59
2023-01-02T23:18:53.183Z,8.64
2023-01-02T23:21:24.119Z,8.66
2023-01-02T23:23:51.584Z,8.67
2023-01-02T23:26:19.126Z,8.65
2023-01-02T23:31:33.228Z,8.64
2023-01-02T23:34:00.040Z,8.63
2023-01-02T23:36:26.679Z,8.65
2023-01-02T23:38:53.218Z,8.71
2023-01-02T23:41:20.351Z,8.75
2023-01-02T23:43:46.967Z,8.72
2023-01-02T23:46:13.633Z,8.74
2023-01-02T23:48:40.283Z,8.74
2023-01-02T23:51:06.933Z,8.77
2023-01-02T23:53:33.621Z,8.78
2023-01-02T23:56:00.452Z,8.82
2023-01-02T23:58:27.003Z,8.85
